sensor_id;sensor_type;location;lat;lon;timestamp;P1;durP1;ratioP1;P2;durP2;ratioP2
5813;SDS011;2933;52.302;8.134;2024-01-30T00:01:45;8.27;;;5.17;;
5813;SDS011;2933;52.302;8.134;2024-01-30T00:06:47;8.00;;;5.40;;
5813;SDS011;2933;52.302;8.134;2024-01-30T00:11:49;8.33;;;5.10;;
5813;SDS011;2933;52.302;8.134;2024-01-30T00:16:52;7.53;;;4.80;;
5813;SDS011;2933;52.302;8.134;2024-01-30T00:21:54;5.83;;;3.93;;
5813;SDS011;2933;52.302;8.134;2024-01-30T00:26:55;6.80;;;4.60;;
5813;SDS011;2933;52.302;8.134;2024-01-30T00:31:58;8.47;;;5.50;;
5813;SDS011;2933;52.302;8.134;2024-01-30T00:37:00;6.57;;;5.23;;
5813;SDS011;2933;52.302;8.134;2024-01-30T00:42:02;7.93;;;5.10;;
5813;SDS011;2933;52.302;8.134;2024-01-30T00:47:05;7.90;;;4.60;;
5813;SDS011;2933;52.302;8.134;2024-01-30T00:52:07;5.70;;;5.13;;
5813;SDS011;2933;52.302;8.134;2024-01-30T00:57:09;5.83;;;5.03;;
5813;SDS011;2933;52.302;8.134;2024-01-30T01:02:12;12.83;;;5.63;;
5813;SDS011;2933;52.302;8.134;2024-01-30T01:07:15;4.67;;;4.27;;
5813;SDS011;2933;52.302;8.134;2024-01-30T01:12:16;7.73;;;4.30;;
5813;SDS011;2933;52.302;8.134;2024-01-30T01:17:19;6.97;;;5.30;;
5813;SDS011;2933;52.302;8.134;2024-01-30T01:22:21;7.53;;;5.07;;
5813;SDS011;2933;52.302;8.134;2024-01-30T01:27:23;6.70;;;4.80;;
5813;SDS011;2933;52.302;8.134;2024-01-30T01:32:26;6.00;;;4.73;;
5813;SDS011;2933;52.302;8.134;2024-01-30T01:37:27;5.80;;;4.73;;
5813;SDS011;2933;52.302;8.134;2024-01-30T01:42:29;8.50;;;5.70;;
5813;SDS011;2933;52.302;8.134;2024-01-30T01:47:32;11.03;;;4.73;;
5813;SDS011;2933;52.302;8.134;2024-01-30T01:52:34;8.10;;;5.50;;
5813;SDS011;2933;52.302;8.134;2024-01-30T01:57:36;8.20;;;5.20;;
5813;SDS011;2933;52.302;8.134;2024-01-30T02:02:39;6.33;;;4.97;;
5813;SDS011;2933;52.302;8.134;2024-01-30T02:07:41;10.67;;;4.97;;
5813;SDS011;2933;52.302;8.134;2024-01-30T02:12:42;7.27;;;5.23;;
5813;SDS011;2933;52.302;8.134;2024-01-30T02:17:45;7.73;;;5.00;;
5813;SDS011;2933;52.302;8.134;2024-01-30T02:22:48;10.17;;;5.67;;
5813;SDS011;2933;52.302;8.134;2024-01-30T02:27:50;10.60;;;5.80;;
5813;SDS011;2933;52.302;8.134;2024-01-30T02:32:52;7.70;;;5.40;;
5813;SDS011;2933;52.302;8.134;2024-01-30T02:37:55;7.37;;;4.97;;
5813;SDS011;2933;52.302;8.134;2024-01-30T02:42:57;7.23;;;6.00;;
5813;SDS011;2933;52.302;8.134;2024-01-30T02:48:00;6.77;;;5.40;;
5813;SDS011;2933;52.302;8.134;2024-01-30T02:53:03;5.23;;;4.73;;
5813;SDS011;2933;52.302;8.134;2024-01-30T02:58:05;7.70;;;5.43;;
5813;SDS011;2933;52.302;8.134;2024-01-30T03:03:06;6.43;;;4.70;;
5813;SDS011;2933;52.302;8.134;2024-01-30T03:08:10;7.10;;;4.57;;
5813;SDS011;2933;52.302;8.134;2024-01-30T03:13:12;4.73;;;4.33;;
5813;SDS011;2933;52.302;8.134;2024-01-30T03:18:13;6.27;;;5.03;;
5813;SDS011;2933;52.302;8.134;2024-01-30T03:23:16;6.80;;;5.13;;
5813;SDS011;2933;52.302;8.134;2024-01-30T03:28:18;9.70;;;5.50;;
5813;SDS011;2933;52.302;8.134;2024-01-30T03:33:20;6.83;;;5.20;;
5813;SDS011;2933;52.302;8.134;2024-01-30T03:38:23;7.27;;;5.43;;
5813;SDS011;2933;52.302;8.134;2024-01-30T03:43:24;10.83;;;5.57;;
5813;SDS011;2933;52.302;8.134;2024-01-30T03:48:26;9.30;;;5.77;;
5813;SDS011;2933;52.302;8.134;2024-01-30T03:53:29;9.37;;;5.83;;
5813;SDS011;2933;52.302;8.134;2024-01-30T03:58:31;9.93;;;5.40;;
5813;SDS011;2933;52.302;8.134;2024-01-30T04:03:32;8.80;;;5.93;;
5813;SDS011;2933;52.302;8.134;2024-01-30T04:08:35;7.43;;;5.03;;
5813;SDS011;2933;52.302;8.134;2024-01-30T04:13:37;7.80;;;6.03;;
5813;SDS011;2933;52.302;8.134;2024-01-30T04:18:39;7.53;;;5.60;;
5813;SDS011;2933;52.302;8.134;2024-01-30T04:23:42;7.00;;;5.27;;
5813;SDS011;2933;52.302;8.134;2024-01-30T04:28:44;7.83;;;5.60;;
5813;SDS011;2933;52.302;8.134;2024-01-30T04:33:46;8.50;;;6.13;;
5813;SDS011;2933;52.302;8.134;2024-01-30T04:38:49;12.27;;;6.57;;
5813;SDS011;2933;52.302;8.134;2024-01-30T04:43:51;5.57;;;4.97;;
5813;SDS011;2933;52.302;8.134;2024-01-30T04:48:53;8.90;;;5.17;;
5813;SDS011;2933;52.302;8.134;2024-01-30T04:53:56;8.73;;;6.20;;
5813;SDS011;2933;52.302;8.134;2024-01-30T04:58:57;21.23;;;6.33;;
5813;SDS011;2933;52.302;8.134;2024-01-30T05:03:59;11.07;;;5.87;;
5813;SDS011;2933;52.302;8.134;2024-01-30T05:09:02;8.57;;;5.60;;
5813;SDS011;2933;52.302;8.134;2024-01-30T05:14:04;9.83;;;5.37;;
5813;SDS011;2933;52.302;8.134;2024-01-30T05:19:06;9.07;;;6.03;;
5813;SDS011;2933;52.302;8.134;2024-01-30T05:24:10;8.17;;;5.30;;
5813;SDS011;2933;52.302;8.134;2024-01-30T05:29:11;13.53;;;5.80;;
5813;SDS011;2933;52.302;8.134;2024-01-30T05:34:13;8.30;;;5.80;;
5813;SDS011;2933;52.302;8.134;2024-01-30T05:39:16;16.57;;;6.10;;
5813;SDS011;2933;52.302;8.134;2024-01-30T05:44:18;6.53;;;5.47;;
5813;SDS011;2933;52.302;8.134;2024-01-30T05:49:19;11.57;;;7.15;;
5813;SDS011;2933;52.302;8.134;2024-01-30T05:54:23;17.90;;;9.30;;
5813;SDS011;2933;52.302;8.134;2024-01-30T05:59:24;10.30;;;6.50;;
5813;SDS011;2933;52.302;8.134;2024-01-30T06:04:26;13.30;;;5.87;;
5813;SDS011;2933;52.302;8.134;2024-01-30T06:09:29;13.40;;;6.30;;
5813;SDS011;2933;52.302;8.134;2024-01-30T06:14:31;10.20;;;5.77;;
5813;SDS011;2933;52.302;8.134;2024-01-30T06:19:32;10.43;;;6.20;;
5813;SDS011;2933;52.302;8.134;2024-01-30T06:24:36;13.27;;;6.93;;
5813;SDS011;2933;52.302;8.134;2024-01-30T06:29:38;11.63;;;5.63;;
5813;SDS011;2933;52.302;8.134;2024-01-30T06:34:40;17.03;;;6.83;;
5813;SDS011;2933;52.302;8.134;2024-01-30T06:39:45;13.30;;;6.77;;
5813;SDS011;2933;52.302;8.134;2024-01-30T06:44:47;10.30;;;6.00;;
5813;SDS011;2933;52.302;8.134;2024-01-30T06:49:48;17.27;;;6.07;;
5813;SDS011;2933;52.302;8.134;2024-01-30T06:54:51;7.97;;;5.97;;
5813;SDS011;2933;52.302;8.134;2024-01-30T06:59:56;19.97;;;6.70;;
5813;SDS011;2933;52.302;8.134;2024-01-30T07:04:58;15.03;;;6.43;;
5813;SDS011;2933;52.302;8.134;2024-01-30T07:10:01;15.90;;;6.73;;
5813;SDS011;2933;52.302;8.134;2024-01-30T07:15:02;11.90;;;6.27;;
5813;SDS011;2933;52.302;8.134;2024-01-30T07:20:08;10.40;;;6.77;;
5813;SDS011;2933;52.302;8.134;2024-01-30T07:25:12;14.40;;;7.13;;
5813;SDS011;2933;52.302;8.134;2024-01-30T07:30:13;10.23;;;6.20;;
5813;SDS011;2933;52.302;8.134;2024-01-30T07:35:16;10.57;;;5.93;;
5813;SDS011;2933;52.302;8.134;2024-01-30T07:40:20;9.93;;;6.80;;
5813;SDS011;2933;52.302;8.134;2024-01-30T07:45:21;10.10;;;5.87;;
5813;SDS011;2933;52.302;8.134;2024-01-30T07:50:24;11.30;;;6.60;;
5813;SDS011;2933;52.302;8.134;2024-01-30T07:55:27;12.53;;;6.67;;
5813;SDS011;2933;52.302;8.134;2024-01-30T08:00:31;10.37;;;6.13;;
5813;SDS011;2933;52.302;8.134;2024-01-30T08:05:33;12.20;;;6.77;;
5813;SDS011;2933;52.302;8.134;2024-01-30T08:10:36;16.27;;;6.77;;
5813;SDS011;2933;52.302;8.134;2024-01-30T08:15:37;16.13;;;6.80;;
5813;SDS011;2933;52.302;8.134;2024-01-30T08:20:39;15.13;;;6.77;;
5813;SDS011;2933;52.302;8.134;2024-01-30T08:25:42;11.30;;;6.10;;
5813;SDS011;2933;52.302;8.134;2024-01-30T08:30:44;9.97;;;6.23;;
5813;SDS011;2933;52.302;8.134;2024-01-30T08:35:45;8.20;;;5.90;;
5813;SDS011;2933;52.302;8.134;2024-01-30T08:40:48;11.27;;;6.10;;
5813;SDS011;2933;52.302;8.134;2024-01-30T08:45:50;8.57;;;5.00;;
5813;SDS011;2933;52.302;8.134;2024-01-30T08:50:52;17.03;;;6.90;;
5813;SDS011;2933;52.302;8.134;2024-01-30T08:55:55;12.90;;;7.50;;
5813;SDS011;2933;52.302;8.134;2024-01-30T09:00:59;9.93;;;6.17;;
5813;SDS011;2933;52.302;8.134;2024-01-30T09:06:00;12.20;;;6.40;;
5813;SDS011;2933;52.302;8.134;2024-01-30T09:11:09;11.67;;;5.60;;
5813;SDS011;2933;52.302;8.134;2024-01-30T09:16:11;9.10;;;5.63;;
5813;SDS011;2933;52.302;8.134;2024-01-30T09:21:12;14.43;;;6.33;;
5813;SDS011;2933;52.302;8.134;2024-01-30T09:26:15;7.57;;;5.37;;
5813;SDS011;2933;52.302;8.134;2024-01-30T09:31:17;8.60;;;5.20;;
5813;SDS011;2933;52.302;8.134;2024-01-30T09:36:19;6.80;;;5.17;;
5813;SDS011;2933;52.302;8.134;2024-01-30T09:41:22;11.13;;;5.73;;
5813;SDS011;2933;52.302;8.134;2024-01-30T09:46:26;13.10;;;5.40;;
5813;SDS011;2933;52.302;8.134;2024-01-30T09:51:29;12.93;;;5.40;;
5813;SDS011;2933;52.302;8.134;2024-01-30T09:56:32;7.80;;;4.90;;
5813;SDS011;2933;52.302;8.134;2024-01-30T10:01:37;8.20;;;5.43;;
5813;SDS011;2933;52.302;8.134;2024-01-30T10:06:39;10.57;;;5.67;;
5813;SDS011;2933;52.302;8.134;2024-01-30T10:11:43;12.30;;;5.07;;
5813;SDS011;2933;52.302;8.134;2024-01-30T10:16:45;12.30;;;5.40;;
5813;SDS011;2933;52.302;8.134;2024-01-30T10:21:47;7.73;;;4.60;;
5813;SDS011;2933;52.302;8.134;2024-01-30T10:26:50;7.33;;;4.47;;
5813;SDS011;2933;52.302;8.134;2024-01-30T10:31:58;9.33;;;5.07;;
5813;SDS011;2933;52.302;8.134;2024-01-30T10:37:05;6.73;;;4.60;;
5813;SDS011;2933;52.302;8.134;2024-01-30T10:42:14;10.20;;;4.47;;
5813;SDS011;2933;52.302;8.134;2024-01-30T10:47:17;11.20;;;5.73;;
5813;SDS011;2933;52.302;8.134;2024-01-30T10:52:27;8.13;;;4.70;;
5813;SDS011;2933;52.302;8.134;2024-01-30T10:57:32;8.17;;;4.73;;
5813;SDS011;2933;52.302;8.134;2024-01-30T11:02:36;6.73;;;4.50;;
5813;SDS011;2933;52.302;8.134;2024-01-30T11:07:39;10.83;;;5.50;;
5813;SDS011;2933;52.302;8.134;2024-01-30T11:12:43;9.13;;;4.90;;
5813;SDS011;2933;52.302;8.134;2024-01-30T11:17:49;9.70;;;4.23;;
5813;SDS011;2933;52.302;8.134;2024-01-30T11:22:53;5.10;;;4.60;;
5813;SDS011;2933;52.302;8.134;2024-01-30T11:27:58;7.13;;;5.50;;
5813;SDS011;2933;52.302;8.134;2024-01-30T11:33:00;9.77;;;5.03;;
5813;SDS011;2933;52.302;8.134;2024-01-30T11:38:04;11.73;;;5.93;;
5813;SDS011;2933;52.302;8.134;2024-01-30T11:43:08;5.60;;;4.00;;
5813;SDS011;2933;52.302;8.134;2024-01-30T11:48:11;6.37;;;4.80;;
5813;SDS011;2933;52.302;8.134;2024-01-30T11:53:13;5.63;;;5.13;;
5813;SDS011;2933;52.302;8.134;2024-01-30T11:58:16;7.53;;;5.00;;
5813;SDS011;2933;52.302;8.134;2024-01-30T12:03:18;7.73;;;5.53;;
5813;SDS011;2933;52.302;8.134;2024-01-30T12:08:19;10.67;;;4.67;;
5813;SDS011;2933;52.302;8.134;2024-01-30T12:13:22;7.90;;;5.57;;
5813;SDS011;2933;52.302;8.134;2024-01-30T12:18:24;8.00;;;4.87;;
5813;SDS011;2933;52.302;8.134;2024-01-30T12:23:26;8.33;;;5.43;;
5813;SDS011;2933;52.302;8.134;2024-01-30T12:28:29;6.90;;;5.10;;
5813;SDS011;2933;52.302;8.134;2024-01-30T12:33:31;12.37;;;5.77;;
5813;SDS011;2933;52.302;8.134;2024-01-30T12:38:33;8.57;;;5.50;;
5813;SDS011;2933;52.302;8.134;2024-01-30T12:43:36;11.47;;;5.33;;
5813;SDS011;2933;52.302;8.134;2024-01-30T12:48:38;13.37;;;6.03;;
5813;SDS011;2933;52.302;8.134;2024-01-30T12:53:39;9.67;;;6.10;;
5813;SDS011;2933;52.302;8.134;2024-01-30T12:58:42;8.27;;;5.47;;
5813;SDS011;2933;52.302;8.134;2024-01-30T13:03:44;7.03;;;5.07;;
5813;SDS011;2933;52.302;8.134;2024-01-30T13:08:46;10.33;;;5.90;;
5813;SDS011;2933;52.302;8.134;2024-01-30T13:13:49;7.83;;;5.67;;
5813;SDS011;2933;52.302;8.134;2024-01-30T13:18:50;10.80;;;5.50;;
5813;SDS011;2933;52.302;8.134;2024-01-30T13:23:52;13.20;;;6.63;;
5813;SDS011;2933;52.302;8.134;2024-01-30T13:28:56;10.50;;;5.70;;
5813;SDS011;2933;52.302;8.134;2024-01-30T13:33:57;14.40;;;6.40;;
5813;SDS011;2933;52.302;8.134;2024-01-30T13:38:59;10.27;;;5.80;;
5813;SDS011;2933;52.302;8.134;2024-01-30T13:44:02;10.23;;;5.00;;
5813;SDS011;2933;52.302;8.134;2024-01-30T13:49:04;14.03;;;6.50;;
5813;SDS011;2933;52.302;8.134;2024-01-30T13:54:06;8.87;;;5.70;;
5813;SDS011;2933;52.302;8.134;2024-01-30T13:59:09;9.63;;;5.43;;
5813;SDS011;2933;52.302;8.134;2024-01-30T14:04:11;12.10;;;5.70;;
5813;SDS011;2933;52.302;8.134;2024-01-30T14:09:14;13.30;;;5.40;;
5813;SDS011;2933;52.302;8.134;2024-01-30T14:14:17;9.07;;;5.17;;
5813;SDS011;2933;52.302;8.134;2024-01-30T14:19:19;7.03;;;5.10;;
5813;SDS011;2933;52.302;8.134;2024-01-30T14:24:21;7.20;;;5.43;;
5813;SDS011;2933;52.302;8.134;2024-01-30T14:29:24;10.07;;;4.83;;
5813;SDS011;2933;52.302;8.134;2024-01-30T14:34:26;7.40;;;5.43;;
5813;SDS011;2933;52.302;8.134;2024-01-30T14:39:27;7.67;;;4.67;;
5813;SDS011;2933;52.302;8.134;2024-01-30T14:44:30;12.57;;;5.00;;
5813;SDS011;2933;52.302;8.134;2024-01-30T14:49:32;5.70;;;4.83;;
5813;SDS011;2933;52.302;8.134;2024-01-30T14:54:34;10.70;;;5.20;;
5813;SDS011;2933;52.302;8.134;2024-01-30T14:59:37;11.80;;;5.70;;
5813;SDS011;2933;52.302;8.134;2024-01-30T15:04:39;6.70;;;4.83;;
5813;SDS011;2933;52.302;8.134;2024-01-30T15:09:40;9.97;;;5.53;;
5813;SDS011;2933;52.302;8.134;2024-01-30T15:14:43;7.33;;;4.90;;
5813;SDS011;2933;52.302;8.134;2024-01-30T15:19:50;7.67;;;4.80;;
5813;SDS011;2933;52.302;8.134;2024-01-30T15:24:52;6.50;;;5.07;;
5813;SDS011;2933;52.302;8.134;2024-01-30T15:29:55;5.80;;;4.70;;
5813;SDS011;2933;52.302;8.134;2024-01-30T15:34:56;5.20;;;4.70;;
5813;SDS011;2933;52.302;8.134;2024-01-30T15:40:01;10.70;;;4.87;;
5813;SDS011;2933;52.302;8.134;2024-01-30T15:45:04;7.70;;;4.30;;
5813;SDS011;2933;52.302;8.134;2024-01-30T15:50:06;14.17;;;4.33;;
5813;SDS011;2933;52.302;8.134;2024-01-30T16:00:34;12.87;;;5.00;;
5813;SDS011;2933;52.302;8.134;2024-01-30T16:05:35;5.97;;;4.73;;
5813;SDS011;2933;52.302;8.134;2024-01-30T16:10:37;4.47;;;4.07;;
5813;SDS011;2933;52.302;8.134;2024-01-30T16:15:40;6.97;;;4.17;;
5813;SDS011;2933;52.302;8.134;2024-01-30T16:20:43;6.70;;;4.27;;
5813;SDS011;2933;52.302;8.134;2024-01-30T16:25:45;9.57;;;4.70;;
5813;SDS011;2933;52.302;8.134;2024-01-30T16:30:48;6.03;;;4.50;;
5813;SDS011;2933;52.302;8.134;2024-01-30T16:35:49;6.90;;;3.80;;
5813;SDS011;2933;52.302;8.134;2024-01-30T16:40:51;4.00;;;3.60;;
5813;SDS011;2933;52.302;8.134;2024-01-30T16:45:54;6.37;;;3.27;;
5813;SDS011;2933;52.302;8.134;2024-01-30T16:50:56;2.87;;;2.63;;
5813;SDS011;2933;52.302;8.134;2024-01-30T16:55:58;4.10;;;2.40;;
5813;SDS011;2933;52.302;8.134;2024-01-30T17:01:01;1.97;;;1.83;;
5813;SDS011;2933;52.302;8.134;2024-01-30T17:06:03;2.20;;;2.10;;
5813;SDS011;2933;52.302;8.134;2024-01-30T17:11:08;3.10;;;1.90;;
5813;SDS011;2933;52.302;8.134;2024-01-30T17:16:12;1.87;;;1.77;;
5813;SDS011;2933;52.302;8.134;2024-01-30T17:21:15;1.43;;;1.43;;
5813;SDS011;2933;52.302;8.134;2024-01-30T17:26:17;3.27;;;1.43;;
5813;SDS011;2933;52.302;8.134;2024-01-30T17:31:21;1.13;;;1.13;;
5813;SDS011;2933;52.302;8.134;2024-01-30T17:36:23;1.40;;;1.10;;
5813;SDS011;2933;52.302;8.134;2024-01-30T17:41:25;0.80;;;0.70;;
5813;SDS011;2933;52.302;8.134;2024-01-30T17:46:28;0.90;;;0.90;;
5813;SDS011;2933;52.302;8.134;2024-01-30T17:51:29;0.90;;;0.90;;
5813;SDS011;2933;52.302;8.134;2024-01-30T17:56:31;1.07;;;1.07;;
5813;SDS011;2933;52.302;8.134;2024-01-30T18:01:34;1.20;;;1.10;;
5813;SDS011;2933;52.302;8.134;2024-01-30T18:06:36;5.23;;;1.10;;
5813;SDS011;2933;52.302;8.134;2024-01-30T18:11:38;1.37;;;1.20;;
5813;SDS011;2933;52.302;8.134;2024-01-30T18:16:41;3.40;;;1.20;;
5813;SDS011;2933;52.302;8.134;2024-01-30T18:21:43;2.70;;;0.97;;
5813;SDS011;2933;52.302;8.134;2024-01-30T18:26:45;2.67;;;1.87;;
5813;SDS011;2933;52.302;8.134;2024-01-30T18:31:48;1.53;;;1.43;;
5813;SDS011;2933;52.302;8.134;2024-01-30T18:36:50;3.47;;;1.60;;
5813;SDS011;2933;52.302;8.134;2024-01-30T18:41:51;1.87;;;1.77;;
5813;SDS011;2933;52.302;8.134;2024-01-30T18:46:55;1.93;;;1.83;;
5813;SDS011;2933;52.302;8.134;2024-01-30T18:51:56;2.93;;;1.93;;
5813;SDS011;2933;52.302;8.134;2024-01-30T18:56:59;6.90;;;2.73;;
5813;SDS011;2933;52.302;8.134;2024-01-30T19:02:02;4.60;;;2.40;;
5813;SDS011;2933;52.302;8.134;2024-01-30T19:07:04;4.63;;;2.53;;
5813;SDS011;2933;52.302;8.134;2024-01-30T19:12:06;2.90;;;2.70;;
5813;SDS011;2933;52.302;8.134;2024-01-30T19:17:09;2.87;;;2.67;;
5813;SDS011;2933;52.302;8.134;2024-01-30T19:22:11;3.50;;;3.07;;
5813;SDS011;2933;52.302;8.134;2024-01-30T19:27:12;5.07;;;3.43;;
5813;SDS011;2933;52.302;8.134;2024-01-30T19:32:15;9.47;;;3.90;;
5813;SDS011;2933;52.302;8.134;2024-01-30T19:37:18;7.10;;;4.10;;
5813;SDS011;2933;52.302;8.134;2024-01-30T19:42:22;6.30;;;3.80;;
5813;SDS011;2933;52.302;8.134;2024-01-30T19:47:25;5.40;;;4.23;;
5813;SDS011;2933;52.302;8.134;2024-01-30T19:52:27;3.37;;;3.07;;
5813;SDS011;2933;52.302;8.134;2024-01-30T19:57:28;5.27;;;3.90;;
5813;SDS011;2933;52.302;8.134;2024-01-30T20:02:31;6.53;;;4.33;;
5813;SDS011;2933;52.302;8.134;2024-01-30T20:07:33;4.20;;;3.80;;
5813;SDS011;2933;52.302;8.134;2024-01-30T20:12:35;6.67;;;3.83;;
5813;SDS011;2933;52.302;8.134;2024-01-30T20:17:40;7.27;;;4.33;;
5813;SDS011;2933;52.302;8.134;2024-01-30T20:22:42;5.80;;;3.67;;
5813;SDS011;2933;52.302;8.134;2024-01-30T20:27:44;8.20;;;4.83;;
5813;SDS011;2933;52.302;8.134;2024-01-30T20:32:47;8.03;;;4.67;;
5813;SDS011;2933;52.302;8.134;2024-01-30T20:37:49;11.23;;;4.30;;
5813;SDS011;2933;52.302;8.134;2024-01-30T20:42:52;5.83;;;3.73;;
5813;SDS011;2933;52.302;8.134;2024-01-30T20:47:55;7.30;;;4.87;;
5813;SDS011;2933;52.302;8.134;2024-01-30T20:52:57;4.80;;;3.73;;
5813;SDS011;2933;52.302;8.134;2024-01-30T20:57:58;6.20;;;3.77;;
5813;SDS011;2933;52.302;8.134;2024-01-30T21:03:01;6.00;;;4.30;;
5813;SDS011;2933;52.302;8.134;2024-01-30T21:08:03;3.37;;;3.00;;
5813;SDS011;2933;52.302;8.134;2024-01-30T21:13:05;1.33;;;1.33;;
5813;SDS011;2933;52.302;8.134;2024-01-30T21:18:08;2.30;;;1.70;;
5813;SDS011;2933;52.302;8.134;2024-01-30T21:23:10;1.77;;;1.20;;
5813;SDS011;2933;52.302;8.134;2024-01-30T21:28:14;1.43;;;1.33;;
5813;SDS011;2933;52.302;8.134;2024-01-30T21:33:19;5.70;;;1.80;;
5813;SDS011;2933;52.302;8.134;2024-01-30T21:38:20;1.57;;;1.47;;
5813;SDS011;2933;52.302;8.134;2024-01-30T21:43:22;3.23;;;1.40;;
5813;SDS011;2933;52.302;8.134;2024-01-30T21:48:25;1.90;;;1.73;;
5813;SDS011;2933;52.302;8.134;2024-01-30T21:53:27;2.07;;;1.97;;
5813;SDS011;2933;52.302;8.134;2024-01-30T21:58:28;2.00;;;1.90;;
5813;SDS011;2933;52.302;8.134;2024-01-30T22:03:31;2.53;;;2.33;;
5813;SDS011;2933;52.302;8.134;2024-01-30T22:08:33;2.10;;;1.97;;
5813;SDS011;2933;52.302;8.134;2024-01-30T22:13:34;2.27;;;2.17;;
5813;SDS011;2933;52.302;8.134;2024-01-30T22:18:37;9.30;;;2.53;;
5813;SDS011;2933;52.302;8.134;2024-01-30T22:23:40;1.80;;;1.67;;
5813;SDS011;2933;52.302;8.134;2024-01-30T22:28:42;2.10;;;1.60;;
5813;SDS011;2933;52.302;8.134;2024-01-30T22:33:45;2.90;;;1.70;;
5813;SDS011;2933;52.302;8.134;2024-01-30T22:38:47;1.53;;;1.43;;
5813;SDS011;2933;52.302;8.134;2024-01-30T22:43:48;1.57;;;1.40;;
5813;SDS011;2933;52.302;8.134;2024-01-30T22:48:51;1.50;;;1.40;;
5813;SDS011;2933;52.302;8.134;2024-01-30T22:53:53;4.17;;;1.93;;
5813;SDS011;2933;52.302;8.134;2024-01-30T22:58:55;7.00;;;1.40;;
5813;SDS011;2933;52.302;8.134;2024-01-30T23:03:58;1.80;;;1.70;;
5813;SDS011;2933;52.302;8.134;2024-01-30T23:08:59;3.03;;;1.40;;
5813;SDS011;2933;52.302;8.134;2024-01-30T23:14:01;3.17;;;1.73;;
5813;SDS011;2933;52.302;8.134;2024-01-30T23:19:05;5.37;;;1.53;;
5813;SDS011;2933;52.302;8.134;2024-01-30T23:24:06;1.60;;;1.50;;
5813;SDS011;2933;52.302;8.134;2024-01-30T23:29:09;3.60;;;1.90;;
5813;SDS011;2933;52.302;8.134;2024-01-30T23:34:12;3.60;;;2.40;;
5813;SDS011;2933;52.302;8.134;2024-01-30T23:39:15;3.23;;;2.00;;
5813;SDS011;2933;52.302;8.134;2024-01-30T23:44:17;3.20;;;2.10;;
5813;SDS011;2933;52.302;8.134;2024-01-30T23:49:20;5.53;;;2.30;;
5813;SDS011;2933;52.302;8.134;2024-01-30T23:54:22;3.73;;;2.37;;
5813;SDS011;2933;52.302;8.134;2024-01-30T23:59:24;1.97;;;1.80;;
